Limoeiro do Norte, Brazil
Current Conditions -  °F | °C
As of 8:00 AM on Sunday 23 Nov 2014 (Local Time) from SBFZ Reporting Station
Few Clouds Few Clouds  
Wind Chill: 82°   Ceiling: Unl
Heat Index: 85°   Visibility: 6mi
Dew Point: 66°   Wind: 18mph
Humidity: 58%   Direction: 100°E
Pressure: 29.91"   Gusts: NA
Location:  5.15°S, 38.1°W
Report Text: SBFZ 231100Z 10016KT 9999 FEW025 28/19 Q1013
Loading
Personal Weather Stations






























Interactive Weather Map New forecast layout! Learn more

10-Day Weather Forecast

Advertisements
Track Severe Weather on mobile